sensor_id;sensor_type;location;lat;lon;timestamp;temperature;humidity
39951;DHT22;25629;51.444;-2.606;2023-04-07T00:00:41;7.40;66.50
39951;DHT22;25629;51.444;-2.606;2023-04-07T00:03:06;7.40;69.00
39951;DHT22;25629;51.444;-2.606;2023-04-07T00:05:33;7.40;69.60
39951;DHT22;25629;51.444;-2.606;2023-04-07T00:07:58;7.30;74.00
39951;DHT22;25629;51.444;-2.606;2023-04-07T00:10:24;7.30;73.90
39951;DHT22;25629;51.444;-2.606;2023-04-07T00:12:50;7.20;81.20
39951;DHT22;25629;51.444;-2.606;2023-04-07T00:15:15;7.30;81.20
39951;DHT22;25629;51.444;-2.606;2023-04-07T00:17:41;7.20;80.50
39951;DHT22;25629;51.444;-2.606;2023-04-07T00:20:06;7.10;81.90
39951;DHT22;25629;51.444;-2.606;2023-04-07T00:22:32;7.10;79.00
39951;DHT22;25629;51.444;-2.606;2023-04-07T00:24:58;7.10;83.60
39951;DHT22;25629;51.444;-2.606;2023-04-07T00:27:23;7.10;85.00
39951;DHT22;25629;51.444;-2.606;2023-04-07T00:29:49;7.00;84.10
39951;DHT22;25629;51.444;-2.606;2023-04-07T00:32:14;7.10;85.60
39951;DHT22;25629;51.444;-2.606;2023-04-07T00:34:40;7.10;81.90
39951;DHT22;25629;51.444;-2.606;2023-04-07T00:37:05;7.00;83.50
39951;DHT22;25629;51.444;-2.606;2023-04-07T00:39:31;7.00;84.60
39951;DHT22;25629;51.444;-2.606;2023-04-07T00:41:57;7.00;83.20
39951;DHT22;25629;51.444;-2.606;2023-04-07T00:44:22;7.00;86.40
39951;DHT22;25629;51.444;-2.606;2023-04-07T00:46:48;6.90;90.00
39951;DHT22;25629;51.444;-2.606;2023-04-07T00:49:14;6.90;89.10
39951;DHT22;25629;51.444;-2.606;2023-04-07T00:51:42;6.90;90.20
39951;DHT22;25629;51.444;-2.606;2023-04-07T00:54:07;6.90;84.50
39951;DHT22;25629;51.444;-2.606;2023-04-07T00:56:33;6.90;86.30
39951;DHT22;25629;51.444;-2.606;2023-04-07T00:58:59;7.00;83.30
39951;DHT22;25629;51.444;-2.606;2023-04-07T01:01:25;6.90;79.70
39951;DHT22;25629;51.444;-2.606;2023-04-07T01:03:52;6.90;75.20
39951;DHT22;25629;51.444;-2.606;2023-04-07T01:06:19;6.90;75.10
39951;DHT22;25629;51.444;-2.606;2023-04-07T01:09:06;6.80;75.90
39951;DHT22;25629;51.444;-2.606;2023-04-07T01:13:59;6.80;80.30
39951;DHT22;25629;51.444;-2.606;2023-04-07T01:18:51;6.70;79.00
39951;DHT22;25629;51.444;-2.606;2023-04-07T01:21:18;6.70;80.80
39951;DHT22;25629;51.444;-2.606;2023-04-07T01:26:28;6.60;79.90
39951;DHT22;25629;51.444;-2.606;2023-04-07T01:31:20;6.50;86.60
39951;DHT22;25629;51.444;-2.606;2023-04-07T01:33:47;6.40;89.80
39951;DHT22;25629;51.444;-2.606;2023-04-07T01:36:14;6.40;91.00
39951;DHT22;25629;51.444;-2.606;2023-04-07T01:38:40;6.40;92.00
39951;DHT22;25629;51.444;-2.606;2023-04-07T01:41:06;6.30;92.50
39951;DHT22;25629;51.444;-2.606;2023-04-07T01:43:33;6.30;91.80
39951;DHT22;25629;51.444;-2.606;2023-04-07T01:45:58;6.40;91.70
39951;DHT22;25629;51.444;-2.606;2023-04-07T01:48:24;6.30;91.00
39951;DHT22;25629;51.444;-2.606;2023-04-07T01:50:50;6.30;92.20
39951;DHT22;25629;51.444;-2.606;2023-04-07T01:53:16;6.30;92.50
39951;DHT22;25629;51.444;-2.606;2023-04-07T01:55:42;6.20;94.00
39951;DHT22;25629;51.444;-2.606;2023-04-07T01:58:08;6.20;94.80
39951;DHT22;25629;51.444;-2.606;2023-04-07T02:00:33;6.20;95.10
39951;DHT22;25629;51.444;-2.606;2023-04-07T02:03:03;6.10;94.10
39951;DHT22;25629;51.444;-2.606;2023-04-07T02:05:30;6.10;94.40
39951;DHT22;25629;51.444;-2.606;2023-04-07T02:08:00;6.00;96.10
39951;DHT22;25629;51.444;-2.606;2023-04-07T02:10:27;6.00;95.80
39951;DHT22;25629;51.444;-2.606;2023-04-07T02:12:53;6.00;96.20
39951;DHT22;25629;51.444;-2.606;2023-04-07T02:15:20;6.00;96.50
39951;DHT22;25629;51.444;-2.606;2023-04-07T02:17:50;5.90;96.20
39951;DHT22;25629;51.444;-2.606;2023-04-07T02:20:16;5.90;96.60
39951;DHT22;25629;51.444;-2.606;2023-04-07T02:22:42;5.90;96.60
39951;DHT22;25629;51.444;-2.606;2023-04-07T02:25:22;5.90;96.30
39951;DHT22;25629;51.444;-2.606;2023-04-07T02:27:48;5.80;97.20
39951;DHT22;25629;51.444;-2.606;2023-04-07T02:30:13;5.80;98.10
39951;DHT22;25629;51.444;-2.606;2023-04-07T02:32:39;5.80;98.50
39951;DHT22;25629;51.444;-2.606;2023-04-07T02:35:04;5.70;99.70
39951;DHT22;25629;51.444;-2.606;2023-04-07T02:37:30;5.70;99.80
39951;DHT22;25629;51.444;-2.606;2023-04-07T02:39:56;5.70;99.90
39951;DHT22;25629;51.444;-2.606;2023-04-07T02:42:21;5.70;99.90
39951;DHT22;25629;51.444;-2.606;2023-04-07T02:44:47;5.70;99.90
39951;DHT22;25629;51.444;-2.606;2023-04-07T02:47:12;5.70;99.90
39951;DHT22;25629;51.444;-2.606;2023-04-07T02:49:38;5.70;99.60
39951;DHT22;25629;51.444;-2.606;2023-04-07T02:52:03;5.60;99.70
39951;DHT22;25629;51.444;-2.606;2023-04-07T02:54:29;5.60;99.90
39951;DHT22;25629;51.444;-2.606;2023-04-07T02:56:55;5.60;99.90
39951;DHT22;25629;51.444;-2.606;2023-04-07T02:59:21;5.60;99.90
39951;DHT22;25629;51.444;-2.606;2023-04-07T03:01:47;5.60;99.90
39951;DHT22;25629;51.444;-2.606;2023-04-07T03:04:12;5.50;99.90
39951;DHT22;25629;51.444;-2.606;2023-04-07T03:06:38;5.50;99.90
39951;DHT22;25629;51.444;-2.606;2023-04-07T03:09:03;5.50;99.90
39951;DHT22;25629;51.444;-2.606;2023-04-07T03:11:29;5.50;99.90
39951;DHT22;25629;51.444;-2.606;2023-04-07T03:13:54;5.50;99.90
39951;DHT22;25629;51.444;-2.606;2023-04-07T03:16:20;5.50;99.90
39951;DHT22;25629;51.444;-2.606;2023-04-07T03:18:45;5.50;99.90
39951;DHT22;25629;51.444;-2.606;2023-04-07T03:21:11;5.50;99.90
39951;DHT22;25629;51.444;-2.606;2023-04-07T03:23:37;5.50;99.90
39951;DHT22;25629;51.444;-2.606;2023-04-07T03:26:03;5.50;99.90
39951;DHT22;25629;51.444;-2.606;2023-04-07T03:28:28;5.50;99.90
39951;DHT22;25629;51.444;-2.606;2023-04-07T03:30:54;5.40;99.90
39951;DHT22;25629;51.444;-2.606;2023-04-07T03:33:20;5.40;99.90
39951;DHT22;25629;51.444;-2.606;2023-04-07T03:35:46;5.40;99.90
39951;DHT22;25629;51.444;-2.606;2023-04-07T03:38:11;5.30;99.90
39951;DHT22;25629;51.444;-2.606;2023-04-07T03:40:37;5.30;99.90
39951;DHT22;25629;51.444;-2.606;2023-04-07T03:43:03;5.30;99.90
39951;DHT22;25629;51.444;-2.606;2023-04-07T03:45:28;5.40;99.90
39951;DHT22;25629;51.444;-2.606;2023-04-07T03:47:54;5.40;99.90
39951;DHT22;25629;51.444;-2.606;2023-04-07T03:50:19;5.40;99.90
39951;DHT22;25629;51.444;-2.606;2023-04-07T03:52:45;5.30;99.90
39951;DHT22;25629;51.444;-2.606;2023-04-07T03:55:11;5.20;99.90
39951;DHT22;25629;51.444;-2.606;2023-04-07T03:57:37;5.10;99.90
39951;DHT22;25629;51.444;-2.606;2023-04-07T04:00:03;5.10;99.90
39951;DHT22;25629;51.444;-2.606;2023-04-07T04:02:29;5.10;99.90
39951;DHT22;25629;51.444;-2.606;2023-04-07T04:04:54;5.10;99.90
39951;DHT22;25629;51.444;-2.606;2023-04-07T04:07:20;5.10;99.90
39951;DHT22;25629;51.444;-2.606;2023-04-07T04:09:46;5.10;99.90
39951;DHT22;25629;51.444;-2.606;2023-04-07T04:12:11;5.10;99.90
39951;DHT22;25629;51.444;-2.606;2023-04-07T04:14:37;5.10;99.90
39951;DHT22;25629;51.444;-2.606;2023-04-07T04:17:03;5.00;99.90
39951;DHT22;25629;51.444;-2.606;2023-04-07T04:19:28;5.00;99.90
39951;DHT22;25629;51.444;-2.606;2023-04-07T04:21:54;5.00;99.90
39951;DHT22;25629;51.444;-2.606;2023-04-07T04:24:19;4.90;99.90
39951;DHT22;25629;51.444;-2.606;2023-04-07T04:26:45;5.00;99.90
39951;DHT22;25629;51.444;-2.606;2023-04-07T04:29:10;4.90;99.90
39951;DHT22;25629;51.444;-2.606;2023-04-07T04:31:36;4.80;99.90
39951;DHT22;25629;51.444;-2.606;2023-04-07T04:34:01;4.90;99.90
39951;DHT22;25629;51.444;-2.606;2023-04-07T04:36:27;4.80;99.90
39951;DHT22;25629;51.444;-2.606;2023-04-07T04:38:52;4.80;99.90
39951;DHT22;25629;51.444;-2.606;2023-04-07T04:41:18;4.80;99.90
39951;DHT22;25629;51.444;-2.606;2023-04-07T04:43:44;4.80;99.90
39951;DHT22;25629;51.444;-2.606;2023-04-07T04:46:09;4.80;99.90
39951;DHT22;25629;51.444;-2.606;2023-04-07T04:48:35;4.80;99.90
39951;DHT22;25629;51.444;-2.606;2023-04-07T04:51:01;4.80;99.90
39951;DHT22;25629;51.444;-2.606;2023-04-07T04:53:26;4.80;99.90
39951;DHT22;25629;51.444;-2.606;2023-04-07T04:55:52;4.80;99.90
39951;DHT22;25629;51.444;-2.606;2023-04-07T04:58:18;4.70;99.90
39951;DHT22;25629;51.444;-2.606;2023-04-07T05:00:43;4.80;99.90
39951;DHT22;25629;51.444;-2.606;2023-04-07T05:03:09;4.80;99.90
39951;DHT22;25629;51.444;-2.606;2023-04-07T05:05:35;4.70;99.90
39951;DHT22;25629;51.444;-2.606;2023-04-07T05:08:00;4.70;99.90
39951;DHT22;25629;51.444;-2.606;2023-04-07T05:10:26;4.80;99.90
39951;DHT22;25629;51.444;-2.606;2023-04-07T05:12:51;4.70;99.90
39951;DHT22;25629;51.444;-2.606;2023-04-07T05:15:17;4.70;99.90
39951;DHT22;25629;51.444;-2.606;2023-04-07T05:17:43;4.70;99.90
39951;DHT22;25629;51.444;-2.606;2023-04-07T05:20:08;4.70;99.90
39951;DHT22;25629;51.444;-2.606;2023-04-07T05:22:34;4.60;99.90
39951;DHT22;25629;51.444;-2.606;2023-04-07T05:25:01;4.60;99.90
39951;DHT22;25629;51.444;-2.606;2023-04-07T05:27:26;4.50;99.90
39951;DHT22;25629;51.444;-2.606;2023-04-07T05:29:52;4.50;99.90
39951;DHT22;25629;51.444;-2.606;2023-04-07T05:32:17;4.50;99.90
39951;DHT22;25629;51.444;-2.606;2023-04-07T05:34:43;4.40;99.90
39951;DHT22;25629;51.444;-2.606;2023-04-07T05:37:09;4.50;99.90
39951;DHT22;25629;51.444;-2.606;2023-04-07T05:39:35;4.50;99.90
39951;DHT22;25629;51.444;-2.606;2023-04-07T05:42:00;4.50;99.90
39951;DHT22;25629;51.444;-2.606;2023-04-07T05:44:27;4.50;99.90
39951;DHT22;25629;51.444;-2.606;2023-04-07T05:46:52;4.50;99.90
39951;DHT22;25629;51.444;-2.606;2023-04-07T05:49:18;4.50;99.90
39951;DHT22;25629;51.444;-2.606;2023-04-07T05:51:43;4.50;99.90
39951;DHT22;25629;51.444;-2.606;2023-04-07T05:54:09;4.40;99.90
39951;DHT22;25629;51.444;-2.606;2023-04-07T05:56:34;4.50;99.90
39951;DHT22;25629;51.444;-2.606;2023-04-07T05:59:00;4.60;99.90
39951;DHT22;25629;51.444;-2.606;2023-04-07T06:01:26;4.60;99.90
39951;DHT22;25629;51.444;-2.606;2023-04-07T06:03:52;4.70;99.90
39951;DHT22;25629;51.444;-2.606;2023-04-07T06:06:17;4.60;99.90
39951;DHT22;25629;51.444;-2.606;2023-04-07T06:08:43;4.60;99.90
39951;DHT22;25629;51.444;-2.606;2023-04-07T06:11:08;4.60;99.90
39951;DHT22;25629;51.444;-2.606;2023-04-07T06:13:34;4.60;99.90
39951;DHT22;25629;51.444;-2.606;2023-04-07T06:15:59;4.60;99.90
39951;DHT22;25629;51.444;-2.606;2023-04-07T06:18:25;4.60;99.90
39951;DHT22;25629;51.444;-2.606;2023-04-07T06:20:51;4.60;99.90
39951;DHT22;25629;51.444;-2.606;2023-04-07T06:23:16;4.60;99.90
39951;DHT22;25629;51.444;-2.606;2023-04-07T06:25:42;4.60;99.90
39951;DHT22;25629;51.444;-2.606;2023-04-07T06:28:08;4.60;99.90
39951;DHT22;25629;51.444;-2.606;2023-04-07T06:30:33;4.60;99.90
39951;DHT22;25629;51.444;-2.606;2023-04-07T06:32:59;4.70;99.90
39951;DHT22;25629;51.444;-2.606;2023-04-07T06:35:25;4.70;99.90
39951;DHT22;25629;51.444;-2.606;2023-04-07T06:37:51;4.80;99.90
39951;DHT22;25629;51.444;-2.606;2023-04-07T06:40:17;5.00;99.90
39951;DHT22;25629;51.444;-2.606;2023-04-07T06:42:43;5.10;99.90
39951;DHT22;25629;51.444;-2.606;2023-04-07T06:45:08;5.20;99.90
39951;DHT22;25629;51.444;-2.606;2023-04-07T06:47:34;5.30;99.90
39951;DHT22;25629;51.444;-2.606;2023-04-07T06:50:00;5.40;99.90
39951;DHT22;25629;51.444;-2.606;2023-04-07T06:52:25;5.50;99.90
39951;DHT22;25629;51.444;-2.606;2023-04-07T06:54:51;5.60;99.90
39951;DHT22;25629;51.444;-2.606;2023-04-07T06:57:16;5.70;99.90
39951;DHT22;25629;51.444;-2.606;2023-04-07T06:59:42;5.90;99.90
39951;DHT22;25629;51.444;-2.606;2023-04-07T07:02:07;6.00;99.90
39951;DHT22;25629;51.444;-2.606;2023-04-07T07:04:33;6.20;99.90
39951;DHT22;25629;51.444;-2.606;2023-04-07T07:06:59;6.30;99.90
39951;DHT22;25629;51.444;-2.606;2023-04-07T07:09:24;6.50;99.90
39951;DHT22;25629;51.444;-2.606;2023-04-07T07:11:51;6.70;99.90
39951;DHT22;25629;51.444;-2.606;2023-04-07T07:14:17;6.80;99.90
39951;DHT22;25629;51.444;-2.606;2023-04-07T07:16:42;6.90;98.60
39951;DHT22;25629;51.444;-2.606;2023-04-07T07:19:08;7.00;97.60
39951;DHT22;25629;51.444;-2.606;2023-04-07T07:21:34;7.20;96.80
39951;DHT22;25629;51.444;-2.606;2023-04-07T07:23:59;7.30;96.70
39951;DHT22;25629;51.444;-2.606;2023-04-07T07:26:25;7.40;95.30
39951;DHT22;25629;51.444;-2.606;2023-04-07T07:28:51;7.60;94.20
39951;DHT22;25629;51.444;-2.606;2023-04-07T07:31:17;7.70;90.60
39951;DHT22;25629;51.444;-2.606;2023-04-07T07:33:43;7.80;88.40
39951;DHT22;25629;51.444;-2.606;2023-04-07T07:36:10;7.90;90.00
39951;DHT22;25629;51.444;-2.606;2023-04-07T07:38:36;8.10;86.90
39951;DHT22;25629;51.444;-2.606;2023-04-07T07:41:01;8.20;86.10
39951;DHT22;25629;51.444;-2.606;2023-04-07T07:43:27;8.40;79.90
39951;DHT22;25629;51.444;-2.606;2023-04-07T07:45:53;8.60;71.00
39951;DHT22;25629;51.444;-2.606;2023-04-07T07:48:18;8.70;68.10
39951;DHT22;25629;51.444;-2.606;2023-04-07T07:50:44;8.70;51.50
39951;DHT22;25629;51.444;-2.606;2023-04-07T07:53:11;8.80;44.50
39951;DHT22;25629;51.444;-2.606;2023-04-07T07:55:36;9.00;36.10
39951;DHT22;25629;51.444;-2.606;2023-04-07T07:58:02;9.10;31.70
39951;DHT22;25629;51.444;-2.606;2023-04-07T08:00:28;9.30;28.10
39951;DHT22;25629;51.444;-2.606;2023-04-07T08:02:53;9.50;11.80
39951;DHT22;25629;51.444;-2.606;2023-04-07T08:05:19;9.70;3.20
39951;DHT22;25629;51.444;-2.606;2023-04-07T08:07:45;9.90;1.00
39951;DHT22;25629;51.444;-2.606;2023-04-07T08:10:11;10.00;1.00
39951;DHT22;25629;51.444;-2.606;2023-04-07T08:12:37;10.10;1.00
39951;DHT22;25629;51.444;-2.606;2023-04-07T08:15:03;10.30;1.00
39951;DHT22;25629;51.444;-2.606;2023-04-07T08:17:28;10.60;1.00
39951;DHT22;25629;51.444;-2.606;2023-04-07T08:19:55;10.80;99.90
39951;DHT22;25629;51.444;-2.606;2023-04-07T08:22:20;10.90;99.90
39951;DHT22;25629;51.444;-2.606;2023-04-07T08:24:46;11.00;1.00
39951;DHT22;25629;51.444;-2.606;2023-04-07T08:27:12;11.20;99.90
39951;DHT22;25629;51.444;-2.606;2023-04-07T08:29:37;11.20;99.90
39951;DHT22;25629;51.444;-2.606;2023-04-07T08:32:03;11.10;99.90
39951;DHT22;25629;51.444;-2.606;2023-04-07T08:34:28;11.10;99.90
39951;DHT22;25629;51.444;-2.606;2023-04-07T08:36:54;11.30;99.90
39951;DHT22;25629;51.444;-2.606;2023-04-07T08:39:20;11.40;99.90
39951;DHT22;25629;51.444;-2.606;2023-04-07T08:41:47;11.80;99.90
39951;DHT22;25629;51.444;-2.606;2023-04-07T08:44:13;12.00;99.90
39951;DHT22;25629;51.444;-2.606;2023-04-07T08:46:39;12.30;99.90
39951;DHT22;25629;51.444;-2.606;2023-04-07T08:49:08;12.60;99.90
39951;DHT22;25629;51.444;-2.606;2023-04-07T08:51:43;12.40;1.00
39951;DHT22;25629;51.444;-2.606;2023-04-07T08:54:10;12.40;1.00
39951;DHT22;25629;51.444;-2.606;2023-04-07T08:56:36;12.50;1.00
39951;DHT22;25629;51.444;-2.606;2023-04-07T08:59:03;12.10;47.50
39951;DHT22;25629;51.444;-2.606;2023-04-07T09:01:30;12.20;79.80
39951;DHT22;25629;51.444;-2.606;2023-04-07T09:03:56;12.40;1.00
39951;DHT22;25629;51.444;-2.606;2023-04-07T09:06:23;12.70;99.90
39951;DHT22;25629;51.444;-2.606;2023-04-07T09:08:48;12.90;99.90
39951;DHT22;25629;51.444;-2.606;2023-04-07T09:11:14;13.10;99.90
39951;DHT22;25629;51.444;-2.606;2023-04-07T09:13:39;13.30;99.90
39951;DHT22;25629;51.444;-2.606;2023-04-07T09:16:05;13.30;99.90
39951;DHT22;25629;51.444;-2.606;2023-04-07T09:18:31;13.40;99.90
39951;DHT22;25629;51.444;-2.606;2023-04-07T09:21:02;13.60;99.90
39951;DHT22;25629;51.444;-2.606;2023-04-07T09:23:32;13.50;99.90
39951;DHT22;25629;51.444;-2.606;2023-04-07T09:25:58;13.10;99.90
39951;DHT22;25629;51.444;-2.606;2023-04-07T09:28:24;13.20;99.90
39951;DHT22;25629;51.444;-2.606;2023-04-07T09:30:53;13.50;99.90
39951;DHT22;25629;51.444;-2.606;2023-04-07T09:33:28;13.70;99.90
39951;DHT22;25629;51.444;-2.606;2023-04-07T09:35:54;14.00;27.30
39951;DHT22;25629;51.444;-2.606;2023-04-07T09:38:21;14.00;1.00
39951;DHT22;25629;51.444;-2.606;2023-04-07T09:40:46;14.30;1.00
39951;DHT22;25629;51.444;-2.606;2023-04-07T09:43:16;14.60;1.00
39951;DHT22;25629;51.444;-2.606;2023-04-07T09:45:41;14.80;1.00
39951;DHT22;25629;51.444;-2.606;2023-04-07T09:48:07;14.70;1.00
39951;DHT22;25629;51.444;-2.606;2023-04-07T09:50:42;14.90;1.00
39951;DHT22;25629;51.444;-2.606;2023-04-07T09:53:10;15.10;1.00
39951;DHT22;25629;51.444;-2.606;2023-04-07T09:55:35;15.20;1.00
39951;DHT22;25629;51.444;-2.606;2023-04-07T09:58:02;15.30;1.00
39951;DHT22;25629;51.444;-2.606;2023-04-07T10:00:28;15.40;1.00
39951;DHT22;25629;51.444;-2.606;2023-04-07T10:02:53;15.30;1.00
39951;DHT22;25629;51.444;-2.606;2023-04-07T10:05:20;15.50;1.00
39951;DHT22;25629;51.444;-2.606;2023-04-07T10:07:46;15.60;1.00
39951;DHT22;25629;51.444;-2.606;2023-04-07T10:10:12;15.70;1.00
39951;DHT22;25629;51.444;-2.606;2023-04-07T10:12:38;16.00;1.00
39951;DHT22;25629;51.444;-2.606;2023-04-07T10:15:05;15.80;99.90
39951;DHT22;25629;51.444;-2.606;2023-04-07T10:17:31;15.90;99.90
39951;DHT22;25629;51.444;-2.606;2023-04-07T10:19:57;15.90;99.90
39951;DHT22;25629;51.444;-2.606;2023-04-07T10:22:24;16.00;99.90
39951;DHT22;25629;51.444;-2.606;2023-04-07T10:25:10;16.00;99.90
39951;DHT22;25629;51.444;-2.606;2023-04-07T10:27:44;16.00;99.90
39951;DHT22;25629;51.444;-2.606;2023-04-07T10:30:17;16.40;99.90
39951;DHT22;25629;51.444;-2.606;2023-04-07T10:32:50;16.10;99.90
39951;DHT22;25629;51.444;-2.606;2023-04-07T10:35:16;16.30;99.90
39951;DHT22;25629;51.444;-2.606;2023-04-07T10:38:08;16.30;99.90
39951;DHT22;25629;51.444;-2.606;2023-04-07T10:40:27;15.90;99.90
39951;DHT22;25629;51.444;-2.606;2023-04-07T10:42:53;16.20;99.90
39951;DHT22;25629;51.444;-2.606;2023-04-07T10:45:50;16.60;99.90
39951;DHT22;25629;51.444;-2.606;2023-04-07T10:50:30;16.80;99.90
39951;DHT22;25629;51.444;-2.606;2023-04-07T10:53:06;16.90;99.90
39951;DHT22;25629;51.444;-2.606;2023-04-07T10:58:20;17.20;99.90
39951;DHT22;25629;51.444;-2.606;2023-04-07T11:03:21;17.00;99.90
39951;DHT22;25629;51.444;-2.606;2023-04-07T11:05:47;17.00;99.90
39951;DHT22;25629;51.444;-2.606;2023-04-07T11:08:13;17.30;99.90
39951;DHT22;25629;51.444;-2.606;2023-04-07T11:10:39;17.60;99.90
39951;DHT22;25629;51.444;-2.606;2023-04-07T11:13:07;17.70;99.90
39951;DHT22;25629;51.444;-2.606;2023-04-07T11:15:34;17.70;99.90
39951;DHT22;25629;51.444;-2.606;2023-04-07T11:18:07;17.70;99.90
39951;DHT22;25629;51.444;-2.606;2023-04-07T11:23:25;17.80;99.90
39951;DHT22;25629;51.444;-2.606;2023-04-07T11:25:52;17.80;99.90
39951;DHT22;25629;51.444;-2.606;2023-04-07T11:28:18;18.00;99.90
39951;DHT22;25629;51.444;-2.606;2023-04-07T11:30:44;18.20;99.90
39951;DHT22;25629;51.444;-2.606;2023-04-07T11:33:14;18.00;99.90
39951;DHT22;25629;51.444;-2.606;2023-04-07T11:35:48;17.90;99.90
39951;DHT22;25629;51.444;-2.606;2023-04-07T11:38:14;17.90;99.90
39951;DHT22;25629;51.444;-2.606;2023-04-07T11:40:40;18.10;99.90
39951;DHT22;25629;51.444;-2.606;2023-04-07T11:43:19;18.10;99.90
39951;DHT22;25629;51.444;-2.606;2023-04-07T11:45:46;18.40;99.90
39951;DHT22;25629;51.444;-2.606;2023-04-07T11:48:24;18.70;99.90
39951;DHT22;25629;51.444;-2.606;2023-04-07T11:50:50;18.80;99.90
39951;DHT22;25629;51.444;-2.606;2023-04-07T11:53:23;18.70;99.90
39951;DHT22;25629;51.444;-2.606;2023-04-07T11:55:49;18.90;99.90
39951;DHT22;25629;51.444;-2.606;2023-04-07T11:58:22;19.00;99.90
39951;DHT22;25629;51.444;-2.606;2023-04-07T12:00:52;18.90;99.90
39951;DHT22;25629;51.444;-2.606;2023-04-07T12:03:18;18.60;99.90
39951;DHT22;25629;51.444;-2.606;2023-04-07T12:05:43;18.60;99.90
39951;DHT22;25629;51.444;-2.606;2023-04-07T12:08:09;18.80;99.90
39951;DHT22;25629;51.444;-2.606;2023-04-07T12:10:35;19.00;99.90
39951;DHT22;25629;51.444;-2.606;2023-04-07T12:13:00;18.90;99.90
39951;DHT22;25629;51.444;-2.606;2023-04-07T12:15:26;19.00;99.90
39951;DHT22;25629;51.444;-2.606;2023-04-07T12:17:52;19.30;99.90
39951;DHT22;25629;51.444;-2.606;2023-04-07T12:20:19;19.40;99.90
39951;DHT22;25629;51.444;-2.606;2023-04-07T12:22:45;19.70;99.90
39951;DHT22;25629;51.444;-2.606;2023-04-07T12:25:11;19.90;99.90
39951;DHT22;25629;51.444;-2.606;2023-04-07T12:27:37;19.80;99.90
39951;DHT22;25629;51.444;-2.606;2023-04-07T12:30:02;19.90;99.90
39951;DHT22;25629;51.444;-2.606;2023-04-07T12:32:28;19.60;99.90
39951;DHT22;25629;51.444;-2.606;2023-04-07T12:34:54;19.70;99.90
39951;DHT22;25629;51.444;-2.606;2023-04-07T12:37:19;20.00;99.90
39951;DHT22;25629;51.444;-2.606;2023-04-07T12:39:45;20.10;99.90
39951;DHT22;25629;51.444;-2.606;2023-04-07T12:42:10;20.40;99.90
39951;DHT22;25629;51.444;-2.606;2023-04-07T12:44:37;20.50;99.90
39951;DHT22;25629;51.444;-2.606;2023-04-07T12:47:02;20.80;99.90
39951;DHT22;25629;51.444;-2.606;2023-04-07T12:49:28;21.10;99.90
39951;DHT22;25629;51.444;-2.606;2023-04-07T12:51:53;21.10;99.90
39951;DHT22;25629;51.444;-2.606;2023-04-07T12:54:20;21.60;99.90
39951;DHT22;25629;51.444;-2.606;2023-04-07T12:56:45;21.80;99.90
39951;DHT22;25629;51.444;-2.606;2023-04-07T12:59:11;22.00;99.90
39951;DHT22;25629;51.444;-2.606;2023-04-07T13:01:37;22.10;99.90
39951;DHT22;25629;51.444;-2.606;2023-04-07T13:04:02;22.30;99.90
39951;DHT22;25629;51.444;-2.606;2023-04-07T13:06:28;22.60;99.90
39951;DHT22;25629;51.444;-2.606;2023-04-07T13:08:53;22.80;99.90
39951;DHT22;25629;51.444;-2.606;2023-04-07T13:11:20;22.80;99.90
39951;DHT22;25629;51.444;-2.606;2023-04-07T13:13:46;22.70;99.90
39951;DHT22;25629;51.444;-2.606;2023-04-07T13:16:11;22.40;99.90
39951;DHT22;25629;51.444;-2.606;2023-04-07T13:18:37;22.40;99.90
39951;DHT22;25629;51.444;-2.606;2023-04-07T13:21:02;22.70;99.90
39951;DHT22;25629;51.444;-2.606;2023-04-07T13:23:28;23.30;99.90
39951;DHT22;25629;51.444;-2.606;2023-04-07T13:25:54;23.60;99.90
39951;DHT22;25629;51.444;-2.606;2023-04-07T13:28:19;23.70;99.90
39951;DHT22;25629;51.444;-2.606;2023-04-07T13:30:46;23.30;99.90
39951;DHT22;25629;51.444;-2.606;2023-04-07T13:33:11;23.70;99.90
39951;DHT22;25629;51.444;-2.606;2023-04-07T13:35:37;24.20;99.90
39951;DHT22;25629;51.444;-2.606;2023-04-07T13:38:03;24.50;99.90
39951;DHT22;25629;51.444;-2.606;2023-04-07T13:40:29;24.50;99.90
39951;DHT22;25629;51.444;-2.606;2023-04-07T13:42:55;24.10;99.90
39951;DHT22;25629;51.444;-2.606;2023-04-07T13:45:21;24.30;99.90
39951;DHT22;25629;51.444;-2.606;2023-04-07T13:47:47;24.00;99.90
39951;DHT22;25629;51.444;-2.606;2023-04-07T13:50:13;24.10;99.90
39951;DHT22;25629;51.444;-2.606;2023-04-07T13:52:38;24.10;99.90
39951;DHT22;25629;51.444;-2.606;2023-04-07T13:55:04;24.20;99.90
39951;DHT22;25629;51.444;-2.606;2023-04-07T13:57:30;23.70;99.90
39951;DHT22;25629;51.444;-2.606;2023-04-07T13:59:56;23.60;99.90
39951;DHT22;25629;51.444;-2.606;2023-04-07T14:02:21;23.10;99.90
39951;DHT22;25629;51.444;-2.606;2023-04-07T14:04:48;23.90;99.90
39951;DHT22;25629;51.444;-2.606;2023-04-07T14:07:14;24.50;99.90
39951;DHT22;25629;51.444;-2.606;2023-04-07T14:09:39;24.90;99.90
39951;DHT22;25629;51.444;-2.606;2023-04-07T14:12:07;24.70;99.90
39951;DHT22;25629;51.444;-2.606;2023-04-07T14:14:33;25.20;99.90
39951;DHT22;25629;51.444;-2.606;2023-04-07T14:16:58;25.90;99.90
39951;DHT22;25629;51.444;-2.606;2023-04-07T14:19:24;25.60;99.90
39951;DHT22;25629;51.444;-2.606;2023-04-07T14:21:50;25.40;99.90
39951;DHT22;25629;51.444;-2.606;2023-04-07T14:24:16;25.00;99.90
39951;DHT22;25629;51.444;-2.606;2023-04-07T14:26:41;25.50;99.90
39951;DHT22;25629;51.444;-2.606;2023-04-07T14:29:07;25.50;99.90
39951;DHT22;25629;51.444;-2.606;2023-04-07T14:31:33;25.80;99.90
39951;DHT22;25629;51.444;-2.606;2023-04-07T14:33:58;25.40;99.90
39951;DHT22;25629;51.444;-2.606;2023-04-07T14:36:24;25.50;99.90
39951;DHT22;25629;51.444;-2.606;2023-04-07T14:38:49;25.50;99.90
39951;DHT22;25629;51.444;-2.606;2023-04-07T14:41:15;26.20;99.90
39951;DHT22;25629;51.444;-2.606;2023-04-07T14:43:41;26.10;99.90
39951;DHT22;25629;51.444;-2.606;2023-04-07T14:46:07;25.50;99.90
39951;DHT22;25629;51.444;-2.606;2023-04-07T14:48:32;25.10;99.90
39951;DHT22;25629;51.444;-2.606;2023-04-07T14:50:58;24.70;99.90
39951;DHT22;25629;51.444;-2.606;2023-04-07T14:53:24;24.90;99.90
39951;DHT22;25629;51.444;-2.606;2023-04-07T14:55:49;24.70;99.90
39951;DHT22;25629;51.444;-2.606;2023-04-07T14:58:15;25.40;99.90
39951;DHT22;25629;51.444;-2.606;2023-04-07T15:00:40;26.10;99.90
39951;DHT22;25629;51.444;-2.606;2023-04-07T15:03:06;26.80;99.90
39951;DHT22;25629;51.444;-2.606;2023-04-07T15:05:31;26.50;99.90
39951;DHT22;25629;51.444;-2.606;2023-04-07T15:07:57;27.00;99.90
39951;DHT22;25629;51.444;-2.606;2023-04-07T15:10:23;27.20;99.90
39951;DHT22;25629;51.444;-2.606;2023-04-07T15:12:48;27.00;99.90
39951;DHT22;25629;51.444;-2.606;2023-04-07T15:15:14;27.00;99.90
39951;DHT22;25629;51.444;-2.606;2023-04-07T15:17:40;27.30;99.90
39951;DHT22;25629;51.444;-2.606;2023-04-07T15:20:06;27.50;99.90
39951;DHT22;25629;51.444;-2.606;2023-04-07T15:22:31;27.90;99.90
39951;DHT22;25629;51.444;-2.606;2023-04-07T15:24:57;28.10;99.90
39951;DHT22;25629;51.444;-2.606;2023-04-07T15:27:23;27.70;99.90
39951;DHT22;25629;51.444;-2.606;2023-04-07T15:29:48;28.10;99.90
39951;DHT22;25629;51.444;-2.606;2023-04-07T15:32:14;27.90;99.90
39951;DHT22;25629;51.444;-2.606;2023-04-07T15:34:40;27.60;99.90
39951;DHT22;25629;51.444;-2.606;2023-04-07T15:37:05;27.70;99.90
39951;DHT22;25629;51.444;-2.606;2023-04-07T15:39:31;27.60;99.90